Time;durP1;ratioP1;P1;durP2;ratioP2;P2;SDS_P1;SDS_P2;PMS_P1;PMS_P2;Temp;Humidity;BMP_temperature;BMP_pressure;BME280_temperature;BME280_humidity;BME280_pressure;Samples;Min_cycle;Max_cycle;Signal;HPM_P1;HPM_P2
2021/01/03 00:01:48;;;;;;;14.18;6.80;;;2.20;99.50;;;;;;5024476;28;20042;-76
2021/01/03 00:04:14;;;;;;;15.75;7.15;;;2.10;99.30;;;;;;5021343;28;20044;-77
2021/01/03 00:06:40;;;;;;;15.65;7.32;;;2.10;99.40;;;;;;5020763;28;20037;-79
2021/01/03 00:09:08;;;;;;;15.88;7.75;;;2.10;99.50;;;;;;5027209;28;20969;-77
2021/01/03 00:11:34;;;;;;;19.30;8.30;;;2.10;99.80;;;;;;5023742;28;20096;-77
2021/01/03 00:13:59;;;;;;;17.40;7.55;;;2.10;99.80;;;;;;5026270;28;20037;-77
2021/01/03 00:16:25;;;;;;;15.00;6.90;;;2.10;99.50;;;;;;5025875;28;20127;-79
2021/01/03 00:18:50;;;;;;;14.75;7.57;;;2.10;99.50;;;;;;5026667;28;20033;-78
2021/01/03 00:21:16;;;;;;;14.00;6.82;;;2.10;99.40;;;;;;5027379;28;20457;-77
2021/01/03 00:23:41;;;;;;;15.82;7.28;;;1.70;99.50;;;;;;5025183;28;20479;-78
2021/01/03 00:26:07;;;;;;;13.80;7.07;;;2.10;99.40;;;;;;5020878;28;20139;-77
2021/01/03 00:28:33;;;;;;;16.50;7.43;;;2.10;99.40;;;;;;5023413;28;20052;-78
2021/01/03 00:30:58;;;;;;;12.98;6.82;;;2.10;99.50;;;;;;5023797;28;20558;-78
2021/01/03 00:33:24;;;;;;;16.65;7.03;;;2.10;99.30;;;;;;5024697;28;20394;-77
2021/01/03 00:35:50;;;;;;;12.18;6.30;;;2.10;99.30;;;;;;5022688;28;20049;-78
2021/01/03 00:38:16;;;;;;;13.65;6.95;;;2.10;99.40;;;;;;5025002;28;20445;-78
2021/01/03 00:40:42;;;;;;;12.68;7.05;;;2.10;99.50;;;;;;5023624;28;20137;-78
2021/01/03 00:43:10;;;;;;;13.75;7.45;;;2.10;99.60;;;;;;5025998;28;20749;-77
2021/01/03 00:45:36;;;;;;;16.52;7.10;;;2.10;99.50;;;;;;5024111;28;20445;-78
2021/01/03 00:48:02;;;;;;;14.73;7.68;;;2.10;99.30;;;;;;5022458;28;20100;-80
2021/01/03 00:50:28;;;;;;;15.20;7.28;;;2.00;99.10;;;;;;5025609;28;20056;-77
2021/01/03 00:52:53;;;;;;;16.05;8.63;;;2.10;99.50;;;;;;5025260;28;20033;-77
2021/01/03 00:55:20;;;;;;;14.90;7.40;;;2.10;99.50;;;;;;5023624;28;20044;-78
2021/01/03 00:57:46;;;;;;;15.75;6.85;;;2.10;99.40;;;;;;5021014;28;20088;-77
2021/01/03 01:00:27;;;;;;;14.15;7.40;;;2.10;99.60;;;;;;5023848;28;20109;-77
2021/01/03 01:02:53;;;;;;;13.70;6.85;;;2.10;99.40;;;;;;5024318;28;20533;-76
2021/01/03 01:05:19;;;;;;;14.35;7.32;;;2.10;99.30;;;;;;5023140;28;20036;-78
2021/01/03 01:07:45;;;;;;;14.98;7.40;;;2.10;99.50;;;;;;5020877;28;20450;-79
2021/01/03 01:10:14;;;;;;;17.92;7.97;;;2.10;99.50;;;;;;5023292;28;20048;-77
2021/01/03 01:12:40;;;;;;;14.75;6.82;;;2.10;99.60;;;;;;5023974;28;20095;-78
2021/01/03 01:15:14;;;;;;;14.65;7.25;;;2.10;99.80;;;;;;5025318;28;20029;-77
2021/01/03 01:17:40;;;;;;;14.57;7.32;;;2.10;99.80;;;;;;5023453;28;20124;-77
2021/01/03 01:20:08;;;;;;;14.07;6.75;;;2.10;99.90;;;;;;5022799;28;20441;-79
2021/01/03 01:22:34;;;;;;;17.77;7.32;;;2.10;99.60;;;;;;5025156;28;20079;-78
2021/01/03 01:24:59;;;;;;;15.02;7.35;;;2.10;99.90;;;;;;5021588;28;20033;-78
2021/01/03 01:27:25;;;;;;;15.13;7.43;;;2.50;99.90;;;;;;5022163;28;20033;-78
2021/01/03 01:29:50;;;;;;;16.55;7.78;;;2.10;99.90;;;;;;5022614;28;20029;-79
2021/01/03 01:32:16;;;;;;;14.68;7.78;;;2.10;99.60;;;;;;5019016;28;20502;-78
2021/01/03 01:34:41;;;;;;;14.88;7.15;;;2.00;99.60;;;;;;5003617;28;20034;-78
2021/01/03 01:37:07;;;;;;;16.80;8.23;;;2.10;99.90;;;;;;5001852;28;20092;-78
2021/01/03 01:39:32;;;;;;;18.08;8.55;;;2.00;99.90;;;;;;5002728;28;20042;-80
2021/01/03 01:41:58;;;;;;;15.00;7.38;;;2.00;99.60;;;;;;5000715;28;20085;-78
2021/01/03 01:44:23;;;;;;;14.70;7.57;;;2.00;99.60;;;;;;4999739;28;20065;-77
2021/01/03 01:47:21;;;;;;;15.60;6.88;;;2.00;99.80;;;;;;5000795;28;20042;-78
2021/01/03 01:49:47;;;;;;;15.13;8.00;;;2.00;99.70;;;;;;4999061;28;20038;-77
2021/01/03 01:52:16;;;;;;;17.42;8.27;;;2.00;99.50;;;;;;5002928;28;20046;-80
2021/01/03 01:54:48;;;;;;;14.77;7.97;;;2.00;99.60;;;;;;5003500;28;20038;-78
2021/01/03 01:57:25;;;;;;;15.38;7.85;;;2.00;99.90;;;;;;5000154;28;20507;-77
2021/01/03 02:00:08;;;;;;;15.52;7.80;;;2.00;99.90;;;;;;5032018;28;20099;-78
2021/01/03 02:02:46;;;;;;;15.88;7.72;;;2.00;99.90;;;;;;5005814;28;20044;-78
2021/01/03 02:05:21;;;;;;;14.82;7.32;;;1.90;99.90;;;;;;5020949;28;20486;-77
2021/01/03 02:08:15;;;;;;;16.33;8.23;;;1.90;99.90;;;;;;5020434;28;20481;-78
2021/01/03 02:10:47;;;;;;;19.10;8.80;;;1.90;99.90;;;;;;5021121;28;20041;-78
2021/01/03 02:13:26;;;;;;;20.40;8.80;;;1.90;99.90;;;;;;5021494;28;20633;-78
2021/01/03 02:16:00;;;;;;;16.33;7.80;;;1.80;99.90;;;;;;5021948;28;20026;-79
2021/01/03 02:18:26;;;;;;;16.40;8.68;;;1.80;99.90;;;;;;5021240;28;20087;-77
2021/01/03 02:21:20;;;;;;;17.08;8.25;;;1.70;99.90;;;;;;5020354;28;20029;-79
2021/01/03 02:24:07;;;;;;;26.23;9.00;;;1.70;99.90;;;;;;5018894;28;20076;-80
2021/01/03 02:26:38;;;;;;;18.30;9.75;;;1.60;99.90;;;;;;5016735;28;20072;-79
2021/01/03 02:29:10;;;;;;;19.42;10.10;;;1.60;99.90;;;;;;5020638;28;20041;-79
2021/01/03 02:31:46;;;;;;;23.38;10.55;;;1.60;99.90;;;;;;5021968;28;20071;-79
2021/01/03 02:34:18;;;;;;;19.20;9.05;;;1.60;99.90;;;;;;5013025;28;20045;-79
2021/01/03 02:36:50;;;;;;;20.42;9.55;;;1.60;99.90;;;;;;5017391;28;20434;-80
2021/01/03 02:39:39;;;;;;;21.20;9.80;;;1.50;99.90;;;;;;5017100;28;20038;-80
2021/01/03 02:42:24;;;;;;;23.27;10.73;;;1.50;99.90;;;;;;5020241;28;20037;-79
2021/01/03 02:44:50;;;;;;;20.23;10.05;;;1.40;99.90;;;;;;5021288;28;20421;-79
2021/01/03 02:47:16;;;;;;;20.02;10.25;;;1.40;99.90;;;;;;5021156;28;20128;-79
2021/01/03 02:49:42;;;;;;;22.67;10.55;;;1.30;99.90;;;;;;5026475;28;20580;-81
2021/01/03 02:52:13;;;;;;;26.75;11.55;;;1.30;99.90;;;;;;5026477;28;20041;-81
2021/01/03 02:54:38;;;;;;;27.35;11.80;;;1.30;99.90;;;;;;5026811;28;20034;-79
2021/01/03 02:57:04;;;;;;;23.75;11.63;;;1.20;99.90;;;;;;5029545;28;20059;-80
2021/01/03 02:59:30;;;;;;;23.15;12.07;;;1.20;99.90;;;;;;5022082;28;20038;-80
2021/01/03 03:01:55;;;;;;;23.90;11.60;;;1.20;99.90;;;;;;5022958;28;20045;-80
2021/01/03 03:04:21;;;;;;;26.30;12.48;;;1.10;99.90;;;;;;5036276;28;20037;-80
2021/01/03 03:06:46;;;;;;;22.35;11.23;;;1.10;99.90;;;;;;5035198;28;20144;-82
2021/01/03 03:09:12;;;;;;;27.02;14.20;;;1.10;99.90;;;;;;5034817;28;20112;-81
2021/01/03 03:11:38;;;;;;;25.17;12.25;;;1.10;99.90;;;;;;5048792;28;20364;-81
2021/01/03 03:14:03;;;;;;;28.02;13.68;;;1.00;99.90;;;;;;5031663;28;20070;-81
2021/01/03 03:16:29;;;;;;;32.85;14.52;;;1.00;99.90;;;;;;5034689;28;20056;-80
2021/01/03 03:18:54;;;;;;;26.00;13.05;;;1.00;99.90;;;;;;5032707;28;20782;-82
2021/01/03 03:21:20;;;;;;;29.85;13.45;;;1.00;99.90;;;;;;5033529;28;20044;-80
2021/01/03 03:23:46;;;;;;;27.80;13.82;;;1.00;99.90;;;;;;5030982;28;20030;-79
2021/01/03 03:26:12;;;;;;;31.95;14.07;;;1.00;99.90;;;;;;5028141;28;20037;-79
2021/01/03 03:28:38;;;;;;;28.77;13.88;;;1.00;99.90;;;;;;5021915;28;20044;-80
2021/01/03 03:31:04;;;;;;;32.20;14.82;;;1.00;99.90;;;;;;5021002;28;20119;-80
2021/01/03 03:33:30;;;;;;;28.83;14.45;;;1.00;99.90;;;;;;5031522;28;20587;-79
2021/01/03 03:35:56;;;;;;;30.45;13.90;;;1.00;99.90;;;;;;5032409;28;20037;-78
2021/01/03 03:38:21;;;;;;;29.48;14.00;;;1.00;99.90;;;;;;5032210;28;20049;-80
2021/01/03 03:40:47;;;;;;;34.95;15.65;;;1.00;99.90;;;;;;5033835;28;20037;-80
2021/01/03 03:43:13;;;;;;;27.70;13.98;;;1.00;99.90;;;;;;5029208;28;20025;-81
2021/01/03 03:45:38;;;;;;;28.50;13.55;;;0.90;99.90;;;;;;5031799;28;20487;-79
2021/01/03 03:48:05;;;;;;;30.58;15.38;;;0.90;99.90;;;;;;5030197;28;20026;-80
2021/01/03 03:50:31;;;;;;;25.88;13.45;;;0.90;99.90;;;;;;5033400;28;20259;-80
2021/01/03 03:52:56;;;;;;;29.50;14.13;;;0.90;99.90;;;;;;5032244;28;20565;-80
2021/01/03 03:55:22;;;;;;;28.83;13.88;;;0.90;99.90;;;;;;5032924;28;20601;-81
2021/01/03 03:57:47;;;;;;;27.77;14.07;;;0.90;99.90;;;;;;5033341;28;20061;-81
2021/01/03 04:00:19;;;;;;;27.20;14.27;;;0.90;99.90;;;;;;5036114;28;20049;-81
2021/01/03 04:02:45;;;;;;;31.92;14.93;;;0.90;99.90;;;;;;5034423;28;20034;-82
2021/01/03 04:05:14;;;;;;;26.98;14.05;;;0.90;99.90;;;;;;5033453;28;20034;-80
2021/01/03 04:07:39;;;;;;;30.90;14.63;;;0.90;99.90;;;;;;5026009;28;20034;-81
2021/01/03 04:10:06;;;;;;;33.28;14.98;;;0.90;99.90;;;;;;5032134;28;20402;-81
2021/01/03 04:12:32;;;;;;;33.67;15.10;;;0.90;99.90;;;;;;5033319;28;20043;-80
2021/01/03 04:14:58;;;;;;;29.73;14.45;;;0.90;99.90;;;;;;5037816;28;25030;-82
2021/01/03 04:17:23;;;;;;;26.95;13.77;;;0.90;99.90;;;;;;5034598;28;20037;-81
2021/01/03 04:19:49;;;;;;;29.85;15.35;;;0.90;99.90;;;;;;5035277;28;20124;-80
2021/01/03 04:22:15;;;;;;;27.50;14.70;;;1.00;99.90;;;;;;5032919;28;20405;-79
2021/01/03 04:24:40;;;;;;;31.83;14.80;;;0.90;99.90;;;;;;5030559;28;20429;-80
2021/01/03 04:27:08;;;;;;;30.60;15.07;;;0.90;99.90;;;;;;5025955;28;20052;-81
2021/01/03 04:29:35;;;;;;;28.25;14.25;;;0.90;99.90;;;;;;5047735;28;20034;-80
2021/01/03 04:32:07;;;;;;;36.00;15.70;;;0.80;99.90;;;;;;5027947;28;20057;-80
2021/01/03 04:34:34;;;;;;;33.92;16.33;;;0.80;99.90;;;;;;5029653;28;20068;-80
2021/01/03 04:37:00;;;;;;;32.30;15.60;;;0.80;99.90;;;;;;5019670;28;20049;-81
2021/01/03 04:39:28;;;;;;;32.50;14.70;;;0.80;99.90;;;;;;5031360;28;20033;-82
2021/01/03 04:42:06;;;;;;;32.67;15.32;;;0.80;99.90;;;;;;5023254;28;20041;-80
2021/01/03 04:44:48;;;;;;;30.48;14.63;;;0.80;99.90;;;;;;5020141;28;20034;-80
2021/01/03 04:47:14;;;;;;;35.20;16.70;;;0.80;99.90;;;;;;5020716;28;20057;-80
2021/01/03 04:49:45;;;;;;;32.25;16.67;;;0.90;99.90;;;;;;5022332;28;20798;-80
2021/01/03 04:52:29;;;;;;;34.58;16.15;;;0.90;99.90;;;;;;5022230;28;20052;-82
2021/01/03 04:55:15;;;;;;;31.52;15.75;;;0.90;99.90;;;;;;5022048;28;20107;-81
2021/01/03 04:58:17;;;;;;;35.55;16.25;;;0.90;99.90;;;;;;5017321;28;20045;-81
2021/01/03 05:01:16;;;;;;;34.75;15.85;;;0.80;99.90;;;;;;5023488;28;20022;-80
2021/01/03 05:04:04;;;;;;;30.95;16.10;;;0.80;99.90;;;;;;5023096;28;20128;-79
2021/01/03 05:06:31;;;;;;;32.25;15.52;;;0.80;99.90;;;;;;5020395;28;20030;-79
2021/01/03 05:08:59;;;;;;;31.95;15.90;;;0.80;99.90;;;;;;5023267;28;20042;-80
2021/01/03 05:11:42;;;;;;;34.83;16.33;;;0.80;99.90;;;;;;5032557;28;20041;-80
2021/01/03 05:14:29;;;;;;;33.40;15.70;;;0.80;99.90;;;;;;5022344;28;20274;-79
2021/01/03 05:16:56;;;;;;;33.88;14.40;;;0.90;99.90;;;;;;5019600;28;20050;-81
2021/01/03 05:19:22;;;;;;;31.85;15.43;;;0.90;99.90;;;;;;5018603;28;20038;-79
2021/01/03 05:21:51;;;;;;;29.27;14.88;;;0.90;99.90;;;;;;5039753;28;20053;-79
2021/01/03 05:24:16;;;;;;;27.65;14.27;;;0.90;99.90;;;;;;5039570;28;20026;-80
2021/01/03 05:26:43;;;;;;;27.77;14.02;;;0.90;99.90;;;;;;5028934;28;20072;-79
2021/01/03 05:29:11;;;;;;;31.27;16.05;;;0.90;99.90;;;;;;5024129;28;20112;-79
2021/01/03 05:31:37;;;;;;;32.40;14.85;;;0.90;99.90;;;;;;5017673;28;20100;-78
2021/01/03 05:34:08;;;;;;;30.92;14.68;;;0.90;99.90;;;;;;5019532;28;20437;-79
2021/01/03 05:37:00;;;;;;;32.58;15.15;;;0.90;99.90;;;;;;5024475;28;20059;-82
2021/01/03 05:39:30;;;;;;;27.90;15.23;;;0.90;99.90;;;;;;5011655;28;20044;-82
2021/01/03 05:42:01;;;;;;;27.65;14.13;;;0.90;99.90;;;;;;5006847;28;20086;-81
2021/01/03 05:44:31;;;;;;;31.50;15.32;;;0.90;99.90;;;;;;5020993;28;20049;-79
2021/01/03 05:47:15;;;;;;;33.70;16.90;;;0.90;99.90;;;;;;5009192;28;20060;-79
2021/01/03 05:49:41;;;;;;;34.97;16.03;;;0.90;99.90;;;;;;5006938;28;20034;-80
2021/01/03 05:52:26;;;;;;;31.55;16.23;;;0.90;99.90;;;;;;5007659;28;20444;-81
2021/01/03 05:54:53;;;;;;;33.42;15.25;;;0.90;99.90;;;;;;5018368;28;20781;-78
2021/01/03 05:57:29;;;;;;;30.27;14.57;;;0.90;99.90;;;;;;5009913;28;20065;-82
2021/01/03 05:59:54;;;;;;;30.45;15.00;;;0.80;99.90;;;;;;5026934;28;20071;-82
2021/01/03 06:02:23;;;;;;;30.50;15.15;;;0.90;99.90;;;;;;5028272;28;20681;-80
2021/01/03 06:05:11;;;;;;;33.58;15.60;;;0.90;99.90;;;;;;5024543;28;20034;-80
2021/01/03 06:07:37;;;;;;;29.38;14.10;;;0.80;99.90;;;;;;5030415;28;20065;-80
2021/01/03 06:10:30;;;;;;;29.50;15.13;;;0.80;99.90;;;;;;4998997;28;20115;-79
2021/01/03 06:12:58;;;;;;;31.25;16.08;;;0.80;99.90;;;;;;5019615;28;20549;-81
2021/01/03 06:15:27;;;;;;;32.05;15.32;;;0.90;99.90;;;;;;5020903;28;20300;-79
2021/01/03 06:17:57;;;;;;;29.40;14.60;;;0.90;99.90;;;;;;5027803;28;20041;-81
2021/01/03 06:20:26;;;;;;;30.30;15.38;;;1.00;99.90;;;;;;5030304;28;20080;-80
2021/01/03 06:22:58;;;;;;;30.50;15.60;;;0.90;99.90;;;;;;5029139;28;20044;-79
2021/01/03 06:25:48;;;;;;;29.92;15.23;;;0.90;99.90;;;;;;5027872;28;20041;-80
2021/01/03 06:28:18;;;;;;;31.27;15.93;;;0.90;99.90;;;;;;5023419;28;20055;-79
2021/01/03 06:31:01;;;;;;;29.08;15.55;;;0.90;99.90;;;;;;5028312;28;20040;-81
2021/01/03 06:33:43;;;;;;;31.57;16.50;;;0.90;99.90;;;;;;5025833;28;20037;-82
2021/01/03 06:36:19;;;;;;;33.65;16.05;;;0.90;99.90;;;;;;5013198;28;20037;-81
2021/01/03 06:39:09;;;;;;;30.55;14.27;;;0.80;99.90;;;;;;5006003;28;20460;-80
2021/01/03 06:41:45;;;;;;;35.47;15.88;;;0.80;99.90;;;;;;5007662;28;20050;-81
2021/01/03 06:44:20;;;;;;;32.83;16.27;;;0.90;99.90;;;;;;5019406;28;20021;-79
2021/01/03 06:47:00;;;;;;;35.38;16.40;;;0.90;99.90;;;;;;5021808;28;20063;-79
2021/01/03 06:49:54;;;;;;;31.10;15.15;;;0.90;99.90;;;;;;5026493;28;20612;-80
2021/01/03 06:53:11;;;;;;;33.45;16.65;;;0.80;99.90;;;;;;5022850;28;20041;-80
2021/01/03 06:55:55;;;;;;;32.13;14.88;;;0.80;99.90;;;;;;4919196;29;20501;-79
2021/01/03 06:58:35;;;;;;;36.90;17.75;;;0.80;99.90;;;;;;5020608;28;20592;-79
2021/01/03 07:01:11;;;;;;;34.55;16.40;;;0.90;99.90;;;;;;5019719;28;20030;-79
2021/01/03 07:03:38;;;;;;;33.70;16.35;;;0.80;99.90;;;;;;5021520;28;20053;-79
2021/01/03 07:06:09;;;;;;;34.63;18.13;;;0.80;99.90;;;;;;5020026;28;20053;-79
2021/01/03 07:08:48;;;;;;;36.92;16.83;;;0.80;99.90;;;;;;5035665;28;20095;-79
2021/01/03 07:11:52;;;;;;;33.72;16.33;;;0.80;99.90;;;;;;5022741;28;20041;-80
2021/01/03 07:14:23;;;;;;;32.63;15.15;;;0.90;99.90;;;;;;5006066;28;20457;-80
2021/01/03 07:16:59;;;;;;;32.78;16.88;;;0.90;99.90;;;;;;5032920;28;20034;-79
2021/01/03 07:19:48;;;;;;;30.88;16.42;;;0.90;99.90;;;;;;5023212;28;20534;-79
2021/01/03 07:22:13;;;;;;;36.20;16.80;;;0.90;99.90;;;;;;5034859;28;20045;-79
2021/01/03 07:24:51;;;;;;;39.40;16.42;;;0.80;99.90;;;;;;5022156;28;20033;-78
2021/01/03 07:27:33;;;;;;;35.08;17.13;;;0.90;99.90;;;;;;5020779;28;20037;-79
2021/01/03 07:30:02;;;;;;;38.88;17.98;;;0.90;99.90;;;;;;5022525;28;20048;-80
2021/01/03 07:32:54;;;;;;;35.35;16.75;;;0.90;99.90;;;;;;5024383;28;20502;-78
2021/01/03 07:35:19;;;;;;;39.30;19.27;;;1.00;99.90;;;;;;5006706;28;20046;-78
2021/01/03 07:37:45;;;;;;;33.90;16.42;;;0.90;99.90;;;;;;5000379;28;20033;-77
2021/01/03 07:40:18;;;;;;;32.88;15.77;;;1.00;99.90;;;;;;5000303;28;20460;-79
2021/01/03 07:42:43;;;;;;;36.72;18.00;;;1.00;99.90;;;;;;5002559;28;20038;-77
2021/01/03 07:45:12;;;;;;;42.80;18.15;;;1.00;99.90;;;;;;4997495;28;20438;-78
2021/01/03 07:47:52;;;;;;;37.53;16.90;;;0.90;99.90;;;;;;4997779;28;20038;-77
2021/01/03 07:50:20;;;;;;;34.85;16.35;;;1.00;99.90;;;;;;5004556;28;20034;-78
2021/01/03 07:52:54;;;;;;;38.83;18.67;;;1.00;99.90;;;;;;5005008;28;20889;-78
2021/01/03 07:55:27;;;;;;;35.00;16.20;;;1.00;99.90;;;;;;5002803;28;20049;-77
2021/01/03 07:58:05;;;;;;;35.08;16.85;;;1.00;99.90;;;;;;5002290;28;20491;-77
2021/01/03 08:00:33;;;;;;;32.45;16.63;;;1.00;99.90;;;;;;5005909;28;20034;-80
2021/01/03 08:03:06;;;;;;;35.47;17.60;;;1.00;99.90;;;;;;5001267;28;20100;-79
2021/01/03 08:05:33;;;;;;;35.45;17.02;;;1.10;99.90;;;;;;5001946;28;20486;-78
2021/01/03 08:08:25;;;;;;;32.88;17.20;;;1.10;99.90;;;;;;5004098;28;20030;-79
2021/01/03 08:11:03;;;;;;;36.00;16.67;;;1.20;99.90;;;;;;4995921;28;20160;-81
2021/01/03 08:13:33;;;;;;;35.45;16.80;;;1.10;99.90;;;;;;5009314;28;20048;-81
2021/01/03 08:16:00;;;;;;;36.67;16.80;;;1.10;99.90;;;;;;5015414;28;21555;-82
2021/01/03 08:18:34;;;;;;;31.55;16.02;;;1.10;99.90;;;;;;5017753;28;20113;-80
2021/01/03 08:21:06;;;;;;;35.13;16.35;;;1.20;99.90;;;;;;5013634;28;20040;-82
2021/01/03 08:23:34;;;;;;;38.10;17.15;;;1.20;99.90;;;;;;5013460;28;20099;-80
2021/01/03 08:26:20;;;;;;;39.60;16.75;;;1.20;99.90;;;;;;5009498;28;20037;-80
2021/01/03 08:29:14;;;;;;;32.75;15.88;;;1.20;99.90;;;;;;5013061;28;20496;-80
2021/01/03 08:31:55;;;;;;;35.10;16.20;;;1.10;99.90;;;;;;5006960;28;20124;-80
2021/01/03 08:34:29;;;;;;;30.70;14.48;;;1.20;99.90;;;;;;5004914;28;20042;-79
2021/01/03 08:36:55;;;;;;;;;;;1.20;99.90;;;;;;5002784;28;20053;-78
2021/01/03 08:39:25;;;;;;;30.80;14.20;;;1.20;99.90;;;;;;5003562;28;20572;-77
2021/01/03 08:42:02;;;;;;;30.17;15.70;;;1.10;99.90;;;;;;5003186;28;20165;-76
2021/01/03 08:44:36;;;;;;;27.27;13.57;;;1.20;99.90;;;;;;4999223;28;20042;-78
2021/01/03 08:47:06;;;;;;;28.52;13.38;;;1.30;99.90;;;;;;4999688;28;20565;-78
2021/01/03 08:49:32;;;;;;;29.17;15.27;;;1.30;99.90;;;;;;5001807;28;20067;-78
2021/01/03 08:52:08;;;;;;;28.40;13.85;;;1.20;99.90;;;;;;5004989;28;20136;-77
2021/01/03 08:54:34;;;;;;;32.03;15.57;;;1.30;99.90;;;;;;5005501;28;20076;-78
2021/01/03 08:57:02;;;;;;;28.08;13.98;;;1.30;99.90;;;;;;5009617;28;20042;-78
2021/01/03 08:59:29;;;;;;;32.63;15.00;;;1.30;99.90;;;;;;4998913;28;20104;-79
2021/01/03 09:01:54;;;;;;;30.40;14.52;;;1.40;99.90;;;;;;4994533;28;20049;-80
2021/01/03 09:04:21;;;;;;;27.98;14.70;;;1.40;99.90;;;;;;4999555;28;20046;-78
2021/01/03 09:06:56;;;;;;;24.60;12.43;;;1.40;99.90;;;;;;5002557;28;20065;-78
2021/01/03 09:09:25;;;;;;;25.48;13.57;;;1.40;99.90;;;;;;5005474;28;20041;-79
2021/01/03 09:11:59;;;;;;;28.00;14.98;;;1.40;99.90;;;;;;5009647;28;20077;-78
2021/01/03 09:14:34;;;;;;;25.85;12.30;;;1.40;99.90;;;;;;5020575;28;20049;-80
2021/01/03 09:17:09;;;;;;;24.05;13.23;;;1.40;99.90;;;;;;5011138;28;20097;-80
2021/01/03 09:20:01;;;;;;;27.35;13.00;;;1.40;99.90;;;;;;5005505;28;20116;-78
2021/01/03 09:22:41;;;;;;;27.52;12.18;;;1.40;99.90;;;;;;5004996;28;20227;-79
2021/01/03 09:25:14;;;;;;;28.20;13.02;;;1.40;99.90;;;;;;5003458;28;20092;-78
2021/01/03 09:27:40;;;;;;;25.98;13.98;;;1.40;99.90;;;;;;5004061;28;20080;-77
2021/01/03 09:30:15;;;;;;;26.10;13.77;;;1.50;99.90;;;;;;5016474;28;20406;-78
2021/01/03 09:32:43;;;;;;;24.33;12.75;;;1.60;99.90;;;;;;5024554;28;20049;-79
2021/01/03 09:35:39;;;;;;;29.98;13.90;;;1.50;99.90;;;;;;5024410;28;20069;-79
2021/01/03 09:38:29;;;;;;;29.52;14.13;;;1.60;99.90;;;;;;5022344;28;20394;-79
2021/01/03 09:41:22;;;;;;;24.67;13.27;;;1.50;99.90;;;;;;5022221;28;20124;-78
2021/01/03 09:44:07;;;;;;;25.75;13.70;;;1.50;99.90;;;;;;5018554;28;21390;-78
2021/01/03 09:46:40;;;;;;;27.30;13.85;;;1.70;99.90;;;;;;5042855;28;20030;-81
2021/01/03 09:49:37;;;;;;;29.20;13.88;;;1.80;99.90;;;;;;5019461;28;20119;-76
2021/01/03 09:52:32;;;;;;;24.23;12.82;;;1.90;99.90;;;;;;5032669;28;20065;-75
2021/01/03 09:55:07;;;;;;;29.35;14.15;;;1.90;99.90;;;;;;5016980;28;20056;-76
2021/01/03 09:57:38;;;;;;;26.15;13.38;;;2.00;99.90;;;;;;5014395;28;20033;-75
2021/01/03 10:00:21;;;;;;;26.65;13.55;;;1.90;99.90;;;;;;5011387;28;20110;-76
2021/01/03 10:02:47;;;;;;;24.38;13.38;;;1.80;99.90;;;;;;5017744;28;20041;-77
2021/01/03 10:05:37;;;;;;;28.20;13.98;;;1.80;99.90;;;;;;5011637;28;20038;-77
2021/01/03 10:08:05;;;;;;;25.65;12.77;;;2.00;99.90;;;;;;5014323;28;20044;-77
2021/01/03 10:10:47;;;;;;;26.55;13.77;;;1.90;99.90;;;;;;5018461;28;20220;-77
2021/01/03 10:13:14;;;;;;;28.00;13.68;;;2.10;99.90;;;;;;5012221;28;20061;-77
2021/01/03 10:15:40;;;;;;;25.40;13.20;;;2.10;99.90;;;;;;5032078;28;20026;-75
2021/01/03 10:18:10;;;;;;;29.48;14.07;;;2.10;99.90;;;;;;5010898;28;20091;-75
2021/01/03 10:20:44;;;;;;;26.92;13.10;;;2.30;99.90;;;;;;5010594;28;20482;-76
2021/01/03 10:23:31;;;;;;;28.27;14.05;;;2.20;99.90;;;;;;5010447;28;20052;-77
2021/01/03 10:25:57;;;;;;;27.15;14.43;;;2.20;99.90;;;;;;5009416;28;20034;-75
2021/01/03 10:28:22;;;;;;;30.23;14.85;;;2.50;99.90;;;;;;5012468;28;20069;-76
2021/01/03 10:30:48;;;;;;;28.58;14.07;;;2.40;99.90;;;;;;5011236;28;20525;-77
2021/01/03 10:33:13;;;;;;;22.45;12.30;;;2.50;99.90;;;;;;5013951;28;20460;-75
2021/01/03 10:35:40;;;;;;;27.45;12.30;;;2.40;99.90;;;;;;5009948;28;20037;-75
2021/01/03 10:38:07;;;;;;;22.90;12.60;;;2.30;99.90;;;;;;5020652;28;20037;-75
2021/01/03 10:40:34;;;;;;;29.60;15.10;;;2.40;99.90;;;;;;5020175;28;20104;-75
2021/01/03 10:43:00;;;;;;;27.38;13.70;;;2.30;99.90;;;;;;5018360;28;20033;-75
2021/01/03 10:45:26;;;;;;;27.40;13.05;;;2.30;99.90;;;;;;5022680;28;20092;-74
2021/01/03 10:47:52;;;;;;;25.02;12.38;;;2.20;99.90;;;;;;5014256;28;20462;-75
2021/01/03 10:50:20;;;;;;;29.23;14.10;;;2.20;99.90;;;;;;5016838;28;20060;-75
2021/01/03 10:52:47;;;;;;;26.63;13.23;;;2.20;99.90;;;;;;5035992;28;20037;-74
2021/01/03 10:55:14;;;;;;;26.38;14.02;;;2.20;99.90;;;;;;5016588;28;20092;-74
2021/01/03 10:57:40;;;;;;;28.25;13.45;;;2.20;99.90;;;;;;5035234;28;20061;-75
2021/01/03 11:00:09;;;;;;;28.38;13.77;;;2.20;99.90;;;;;;5021025;28;20061;-75
2021/01/03 11:02:35;;;;;;;24.55;13.20;;;2.30;99.90;;;;;;5023329;28;20037;-75
2021/01/03 11:05:02;;;;;;;25.02;13.80;;;2.40;99.90;;;;;;5021239;28;20041;-74
2021/01/03 11:07:27;;;;;;;23.85;13.35;;;2.40;99.90;;;;;;5019882;28;20049;-74
2021/01/03 11:09:53;;;;;;;24.75;13.27;;;2.20;99.90;;;;;;5020313;28;20048;-75
2021/01/03 11:12:19;;;;;;;26.48;14.20;;;2.20;99.90;;;;;;5024032;28;20552;-76
2021/01/03 11:14:45;;;;;;;29.45;14.27;;;2.40;99.90;;;;;;5025406;28;20034;-75
2021/01/03 11:17:14;;;;;;;29.70;13.77;;;2.20;99.90;;;;;;5021796;28;20037;-75
2021/01/03 11:19:40;;;;;;;30.70;13.93;;;2.00;99.90;;;;;;5012818;28;20072;-76
2021/01/03 11:22:09;;;;;;;29.30;14.38;;;2.00;99.90;;;;;;5019023;28;20461;-75
2021/01/03 11:24:34;;;;;;;26.85;14.00;;;2.10;99.90;;;;;;5023729;28;20148;-76
2021/01/03 11:27:06;;;;;;;28.45;14.80;;;2.00;99.90;;;;;;5020037;28;20502;-75
2021/01/03 11:29:32;;;;;;;24.23;14.05;;;2.10;99.90;;;;;;5021722;28;20273;-75
2021/01/03 11:32:00;;;;;;;29.40;14.27;;;2.10;99.90;;;;;;5019316;28;20053;-75
2021/01/03 11:34:31;;;;;;;29.48;14.60;;;2.20;99.90;;;;;;5021352;28;20071;-75
2021/01/03 11:37:03;;;;;;;32.90;14.73;;;2.30;99.90;;;;;;5016727;28;20052;-75
2021/01/03 11:39:31;;;;;;;31.88;14.20;;;2.20;99.90;;;;;;5017950;28;20478;-75
2021/01/03 11:41:59;;;;;;;28.38;14.23;;;2.10;99.90;;;;;;5017925;28;20585;-75
2021/01/03 11:44:25;;;;;;;35.15;15.32;;;2.20;99.90;;;;;;5036397;28;20145;-76
2021/01/03 11:46:58;;;;;;;30.88;15.65;;;2.20;99.90;;;;;;5014898;28;20136;-75
2021/01/03 11:49:24;;;;;;;30.33;15.35;;;2.10;99.90;;;;;;5023948;28;20041;-75
2021/01/03 11:51:50;;;;;;;30.25;14.95;;;2.20;99.90;;;;;;5018710;28;20045;-75
2021/01/03 11:54:16;;;;;;;32.70;15.70;;;2.10;99.90;;;;;;5024213;28;20033;-74
2021/01/03 11:56:42;;;;;;;34.53;16.85;;;2.10;99.90;;;;;;5020372;28;20041;-75
2021/01/03 11:59:07;;;;;;;36.40;16.48;;;2.10;99.90;;;;;;5022732;28;20042;-74
2021/01/03 12:01:33;;;;;;;32.75;15.40;;;2.20;99.90;;;;;;5018609;28;20062;-76
2021/01/03 12:03:58;;;;;;;42.00;17.67;;;2.10;99.90;;;;;;5018717;28;20060;-76
2021/01/03 12:06:25;;;;;;;33.47;16.27;;;2.50;99.90;;;;;;4992901;28;20313;-76
2021/01/03 12:08:51;;;;;;;38.17;15.98;;;2.40;99.90;;;;;;5018616;28;20672;-75
2021/01/03 12:11:22;;;;;;;34.38;16.52;;;2.40;99.90;;;;;;5022085;28;20048;-75
2021/01/03 12:13:56;;;;;;;39.42;17.73;;;2.20;99.90;;;;;;5022277;28;20402;-75
2021/01/03 12:16:27;;;;;;;38.28;17.25;;;2.30;99.90;;;;;;5017918;28;20068;-75
2021/01/03 12:18:53;;;;;;;34.75;17.77;;;2.20;99.90;;;;;;5021050;28;20150;-75
2021/01/03 12:21:29;;;;;;;36.53;16.60;;;2.30;99.90;;;;;;5023569;28;20034;-74
2021/01/03 12:23:55;;;;;;;41.33;17.50;;;2.20;99.90;;;;;;5024240;28;20045;-75
2021/01/03 12:26:22;;;;;;;28.25;15.60;;;2.10;99.90;;;;;;5022171;28;20038;-76
2021/01/03 12:28:48;;;;;;;39.33;17.77;;;2.10;99.90;;;;;;5022110;28;20037;-76
2021/01/03 12:31:14;;;;;;;35.72;17.38;;;2.20;99.90;;;;;;5024026;28;20141;-75
2021/01/03 12:33:41;;;;;;;40.33;18.20;;;2.30;99.90;;;;;;5022422;28;20369;-75
2021/01/03 12:36:07;;;;;;;41.30;17.92;;;2.20;99.90;;;;;;5020770;28;20042;-75
2021/01/03 12:38:32;;;;;;;33.42;17.15;;;2.30;99.90;;;;;;5020797;28;20137;-75
2021/01/03 12:40:58;;;;;;;39.38;18.23;;;2.30;99.90;;;;;;5020456;28;20045;-75
2021/01/03 12:43:24;;;;;;;36.15;16.77;;;2.30;99.90;;;;;;5021576;28;20053;-74
2021/01/03 12:45:49;;;;;;;35.38;17.55;;;2.20;99.90;;;;;;5021767;28;20040;-75
2021/01/03 12:48:15;;;;;;;36.97;17.50;;;2.10;99.90;;;;;;5019416;28;20526;-74
2021/01/03 12:50:41;;;;;;;38.72;19.52;;;2.10;99.90;;;;;;5021930;28;20116;-75
2021/01/03 12:53:06;;;;;;;40.58;18.10;;;2.20;99.90;;;;;;5021740;28;20044;-76
2021/01/03 12:55:32;;;;;;;43.45;19.83;;;2.20;99.90;;;;;;5019156;28;20064;-76
2021/01/03 12:57:57;;;;;;;42.67;18.42;;;2.20;99.90;;;;;;5034174;28;20025;-76
2021/01/03 13:00:23;;;;;;;42.33;18.50;;;2.30;99.90;;;;;;5021646;28;20034;-75